createdAt,value
2018-12-05T00:01:53.171Z,96910
2018-12-05T00:05:15.209Z,96920
2018-12-05T00:08:37.249Z,96910
2018-12-05T00:11:59.292Z,96900
2018-12-05T00:15:21.395Z,96900
2018-12-05T00:18:43.312Z,96900
2018-12-05T00:22:05.344Z,96910
2018-12-05T00:25:27.424Z,96920
2018-12-05T00:28:49.453Z,96920
2018-12-05T00:32:11.484Z,96920
2018-12-05T00:35:33.439Z,96920
2018-12-05T00:38:55.630Z,96920
2018-12-05T00:42:17.667Z,96910
2018-12-05T00:45:39.523Z,96920
2018-12-05T00:49:01.559Z,96920
2018-12-05T00:52:23.682Z,96920
2018-12-05T00:55:45.642Z,96930
2018-12-05T00:59:07.776Z,96930
2018-12-05T01:02:29.750Z,96940
2018-12-05T01:05:51.800Z,96940
2018-12-05T01:09:13.941Z,96930
2018-12-05T01:12:35.894Z,96940
2018-12-05T01:15:58.073Z,96930
2018-12-05T01:19:20.108Z,96920
2018-12-05T01:22:42.669Z,96920
2018-12-05T01:26:04.131Z,96930
2018-12-05T01:29:26.281Z,96920
2018-12-05T01:32:48.348Z,96920
2018-12-05T01:36:10.424Z,96930
2018-12-05T01:39:32.470Z,96930
2018-12-05T01:42:54.498Z,96940
2018-12-05T01:46:16.488Z,96930
2018-12-05T01:49:38.609Z,96930
2018-12-05T01:53:00.677Z,96930
2018-12-05T01:56:22.762Z,96930
2018-12-05T01:59:44.836Z,96920
2018-12-05T02:03:06.919Z,96920
2018-12-05T02:06:28.914Z,96920
2018-12-05T02:09:51.114Z,96930
2018-12-05T02:13:13.094Z,96910
2018-12-05T02:16:35.136Z,96900
2018-12-05T02:19:57.122Z,96900
2018-12-05T02:23:19.279Z,96880
2018-12-05T02:26:41.314Z,96880
2018-12-05T02:30:03.384Z,96880
2018-12-05T02:33:25.427Z,96880
2018-12-05T02:36:47.438Z,96900
2018-12-05T02:40:09.571Z,96900
2018-12-05T02:43:31.553Z,96890
2018-12-05T02:46:53.684Z,96900
2018-12-05T02:50:15.680Z,96890
2018-12-05T02:53:37.752Z,96910
2018-12-05T02:56:59.838Z,96910
2018-12-05T03:00:21.963Z,96910
2018-12-05T03:03:43.983Z,96910
2018-12-05T03:07:06.057Z,96920
2018-12-05T03:10:28.124Z,96920
2018-12-05T03:13:50.190Z,96910
2018-12-05T03:17:12.268Z,96910
2018-12-05T03:20:34.425Z,96920
2018-12-05T03:23:56.440Z,96910
2018-12-05T03:27:18.505Z,96910
2018-12-05T03:30:40.557Z,96920
2018-12-05T03:34:02.574Z,96920
2018-12-05T03:37:24.720Z,96920
2018-12-05T03:40:46.830Z,96910
2018-12-05T03:44:08.837Z,96910
2018-12-05T03:47:30.906Z,96910
2018-12-05T03:50:52.883Z,96900
2018-12-05T03:54:14.923Z,96880
2018-12-05T03:57:37.069Z,96880
2018-12-05T04:00:59.118Z,96870
2018-12-05T04:04:21.090Z,96860
2018-12-05T04:07:43.199Z,96870
2018-12-05T04:11:07.231Z,96870
2018-12-05T04:14:27.280Z,96880
2018-12-05T04:17:49.348Z,96880
2018-12-05T04:21:12.141Z,96890
2018-12-05T04:24:33.368Z,96890
2018-12-05T04:27:55.477Z,96900
2018-12-05T04:31:17.501Z,96900
2018-12-05T04:34:39.602Z,96890
2018-12-05T04:38:01.581Z,96910
2018-12-05T04:41:23.649Z,96920
2018-12-05T04:44:45.789Z,96920
2018-12-05T04:48:07.766Z,96930
2018-12-05T04:51:29.849Z,96930
2018-12-05T04:54:51.992Z,96930
2018-12-05T04:58:14.120Z,96930
2018-12-05T05:01:36.084Z,96920
2018-12-05T05:04:58.099Z,96930
2018-12-05T05:08:20.258Z,96930
2018-12-05T05:11:42.334Z,96940
2018-12-05T05:15:04.365Z,96930
2018-12-05T05:18:26.400Z,96930
2018-12-05T05:21:48.350Z,96930
2018-12-05T05:25:10.476Z,96930
2018-12-05T05:28:32.525Z,96930
2018-12-05T05:31:54.609Z,96920
2018-12-05T05:35:16.551Z,96920
2018-12-05T05:38:38.712Z,96920
2018-12-05T05:42:00.797Z,96920
2018-12-05T05:45:22.776Z,96920
2018-12-05T05:48:44.913Z,96920
2018-12-05T05:52:06.994Z,96920
2018-12-05T05:55:28.996Z,96910
2018-12-05T05:58:51.075Z,96910
2018-12-05T06:02:13.120Z,96910
2018-12-05T06:05:35.256Z,96910
2018-12-05T06:08:57.281Z,96910
2018-12-05T06:12:19.310Z,96900
2018-12-05T06:15:41.474Z,96900
2018-12-05T06:19:03.550Z,96900
2018-12-05T06:22:25.663Z,96890
2018-12-05T06:25:47.629Z,96900
2018-12-05T06:29:13.251Z,96910
2018-12-05T06:32:31.670Z,96900
2018-12-05T06:35:53.805Z,96900
2018-12-05T06:39:15.877Z,96900
2018-12-05T06:42:37.868Z,96900
2018-12-05T06:45:59.935Z,96910
2018-12-05T06:49:21.995Z,96900
2018-12-05T06:52:44.048Z,96900
2018-12-05T06:56:06.236Z,96910
2018-12-05T06:59:28.176Z,96920
2018-12-05T07:02:50.314Z,96920
2018-12-05T07:06:12.316Z,96920
2018-12-05T07:09:34.382Z,96930
2018-12-05T07:12:57.354Z,96930
2018-12-05T07:16:18.577Z,96930
2018-12-05T07:19:40.603Z,96930
2018-12-05T07:23:02.660Z,96930
2018-12-05T07:26:24.829Z,96930
2018-12-05T07:29:46.881Z,96940
2018-12-05T07:33:08.925Z,96950
2018-12-05T07:36:30.905Z,96940
2018-12-05T07:39:53.099Z,96940
2018-12-05T07:43:15.137Z,96940
2018-12-05T07:46:37.170Z,96940
2018-12-05T07:49:59.311Z,96940
2018-12-05T07:53:21.348Z,96940
2018-12-05T07:56:43.321Z,96940
2018-12-05T08:00:05.376Z,96940
2018-12-05T08:03:27.530Z,96940
2018-12-05T08:06:49.491Z,96950
2018-12-05T08:10:12.082Z,96940
2018-12-05T08:13:33.720Z,96950
2018-12-05T08:16:55.647Z,96950
2018-12-05T08:20:17.724Z,96960
2018-12-05T08:23:39.830Z,96960
2018-12-05T08:27:01.699Z,96960
2018-12-05T08:30:23.828Z,96960
2018-12-05T08:33:45.825Z,96960
2018-12-05T08:37:07.934Z,96970
2018-12-05T08:40:29.902Z,96970
2018-12-05T08:43:51.975Z,96960
2018-12-05T08:47:13.993Z,96950
2018-12-05T08:50:36.066Z,96960
2018-12-05T08:53:58.040Z,96960
2018-12-05T08:57:20.159Z,96950
2018-12-05T09:00:42.175Z,96950
2018-12-05T09:04:04.212Z,96950
2018-12-05T09:07:26.292Z,96950
2018-12-05T09:10:48.221Z,96940
2018-12-05T09:14:10.283Z,96940
2018-12-05T09:17:32.411Z,96940
2018-12-05T09:20:54.469Z,96940
2018-12-05T09:24:16.454Z,96940
2018-12-05T09:27:38.408Z,96940
2018-12-05T09:31:00.526Z,96930
2018-12-05T09:34:22.492Z,96930
2018-12-05T09:37:44.607Z,96930
2018-12-05T09:41:06.596Z,96930
2018-12-05T09:44:28.612Z,96930
2018-12-05T09:47:50.631Z,96920
2018-12-05T09:51:12.542Z,96920
2018-12-05T09:54:34.538Z,96920
2018-12-05T09:57:56.531Z,96920
2018-12-05T10:01:18.610Z,96920
2018-12-05T10:04:40.664Z,96920
2018-12-05T10:08:02.548Z,96910
2018-12-05T10:11:24.566Z,96910
2018-12-05T10:14:46.570Z,96910
2018-12-05T10:18:08.630Z,96910
2018-12-05T10:21:30.551Z,96900
2018-12-05T10:24:52.549Z,96900
2018-12-05T10:28:14.625Z,96900
2018-12-05T10:31:36.717Z,96890
2018-12-05T10:34:58.660Z,96880
2018-12-05T10:38:20.700Z,96870
2018-12-05T10:41:42.617Z,96870
2018-12-05T10:45:05.097Z,96870
2018-12-05T10:48:26.781Z,96860
2018-12-05T10:51:48.692Z,96860
2018-12-05T10:55:10.813Z,96850
2018-12-05T10:58:32.819Z,96860
2018-12-05T11:01:54.712Z,96850
2018-12-05T11:05:16.724Z,96850
2018-12-05T11:08:38.723Z,96840
2018-12-05T11:12:00.921Z,96830
2018-12-05T11:15:22.849Z,96830
2018-12-05T11:18:44.882Z,96830
2018-12-05T11:22:06.779Z,96830
2018-12-05T11:25:28.794Z,96820
2018-12-05T11:28:50.865Z,96810
2018-12-05T11:32:12.805Z,96800
2018-12-05T11:35:34.791Z,96810
2018-12-05T11:38:56.834Z,96800
2018-12-05T11:42:18.828Z,96810
2018-12-05T11:45:41.004Z,96810
2018-12-05T11:49:02.862Z,96810
2018-12-05T11:52:24.865Z,96810
2018-12-05T11:55:46.954Z,96800
2018-12-05T11:59:08.959Z,96800
2018-12-05T12:02:30.907Z,96790
2018-12-05T12:05:52.995Z,96790
2018-12-05T12:09:14.941Z,96790
2018-12-05T12:12:36.960Z,96780
2018-12-05T12:15:59.066Z,96770
2018-12-05T12:19:21.014Z,96760
2018-12-05T12:22:43.061Z,96770
2018-12-05T12:26:05.172Z,96760
2018-12-05T12:29:27.074Z,96770
2018-12-05T12:32:49.334Z,96760
2018-12-05T12:36:11.143Z,96770
2018-12-05T12:39:33.163Z,96770
2018-12-05T12:42:55.164Z,96760
2018-12-05T12:46:17.093Z,96760
2018-12-05T12:49:39.138Z,96750
2018-12-05T12:53:01.229Z,96750
2018-12-05T12:56:23.287Z,96750
2018-12-05T12:59:45.175Z,96750
2018-12-05T13:03:07.276Z,96740
2018-12-05T13:06:29.321Z,96740
2018-12-05T13:09:51.369Z,96740
2018-12-05T13:13:15.914Z,96740
2018-12-05T13:16:35.372Z,96730
2018-12-05T13:19:57.384Z,96730
2018-12-05T13:23:19.342Z,96720
2018-12-05T18:45:35.506Z,96480
2018-12-05T18:48:57.549Z,96480
2018-12-05T18:52:19.306Z,96480
2018-12-05T18:55:41.212Z,96470
2018-12-05T18:59:03.005Z,96470
2018-12-05T19:02:24.848Z,96480
2018-12-05T19:05:46.637Z,96490
2018-12-05T19:09:08.467Z,96500
2018-12-05T19:12:30.239Z,96510
2018-12-05T19:15:52.065Z,96510
2018-12-05T19:19:13.802Z,96520
2018-12-05T19:22:35.665Z,96520
2018-12-05T19:29:19.232Z,96510
2018-12-05T19:32:41.034Z,96520
2018-12-05T19:36:02.664Z,96510
2018-12-05T19:46:07.988Z,96490
2018-12-05T19:49:29.853Z,96490
2018-12-05T19:56:13.320Z,96470
2018-12-05T19:59:35.146Z,96470
2018-12-05T20:09:40.451Z,96470
2018-12-05T20:16:23.955Z,96460
2018-12-05T20:23:07.639Z,96450
2018-12-05T20:26:29.361Z,96460
2018-12-05T20:29:51.156Z,96460
2018-12-05T20:36:34.660Z,96450
2018-12-05T20:39:56.470Z,96440
2018-12-05T20:43:18.329Z,96470
2018-12-05T20:46:39.985Z,96480
2018-12-05T20:50:01.915Z,96490
2018-12-05T20:53:23.667Z,96460
2018-12-05T20:56:45.367Z,96450
2018-12-05T21:00:07.161Z,96430
2018-12-05T21:03:28.947Z,96420
2018-12-05T21:06:50.584Z,96420
2018-12-05T21:10:12.377Z,96410
2018-12-05T21:13:34.242Z,96400
2018-12-05T21:16:55.817Z,96390
2018-12-05T21:20:17.647Z,96390
2018-12-05T21:23:39.368Z,96380
